sensor_id;sensor_type;location;lat;lon;timestamp;P1;durP1;ratioP1;P2;durP2;ratioP2
77864;SDS011;67061;48.524;9.040;2023-06-22T00:00:01;8.73;;;6.35;;
77864;SDS011;67061;48.524;9.040;2023-06-22T00:02:33;9.73;;;6.43;;
77864;SDS011;67061;48.524;9.040;2023-06-22T00:05:00;8.77;;;6.88;;
77864;SDS011;67061;48.524;9.040;2023-06-22T00:07:27;8.50;;;6.07;;
77864;SDS011;67061;48.524;9.040;2023-06-22T00:09:53;8.25;;;6.25;;
77864;SDS011;67061;48.524;9.040;2023-06-22T00:12:22;9.02;;;6.65;;
77864;SDS011;67061;48.524;9.040;2023-06-22T00:14:48;8.35;;;5.90;;
77864;SDS011;67061;48.524;9.040;2023-06-22T00:17:15;9.93;;;6.15;;
77864;SDS011;67061;48.524;9.040;2023-06-22T00:19:42;8.73;;;5.90;;
77864;SDS011;67061;48.524;9.040;2023-06-22T00:22:09;7.80;;;5.97;;
77864;SDS011;67061;48.524;9.040;2023-06-22T00:24:36;8.68;;;6.25;;
77864;SDS011;67061;48.524;9.040;2023-06-22T00:27:03;7.22;;;5.90;;
77864;SDS011;67061;48.524;9.040;2023-06-22T00:29:32;12.15;;;6.45;;
77864;SDS011;67061;48.524;9.040;2023-06-22T00:31:59;7.90;;;6.13;;
77864;SDS011;67061;48.524;9.040;2023-06-22T00:34:26;8.40;;;5.97;;
77864;SDS011;67061;48.524;9.040;2023-06-22T00:36:52;10.05;;;6.32;;
77864;SDS011;67061;48.524;9.040;2023-06-22T00:39:19;8.27;;;6.25;;
77864;SDS011;67061;48.524;9.040;2023-06-22T00:41:46;7.97;;;6.38;;
77864;SDS011;67061;48.524;9.040;2023-06-22T00:44:13;9.70;;;6.03;;
77864;SDS011;67061;48.524;9.040;2023-06-22T00:46:41;8.73;;;5.78;;
77864;SDS011;67061;48.524;9.040;2023-06-22T00:49:08;9.30;;;6.32;;
77864;SDS011;67061;48.524;9.040;2023-06-22T00:51:35;10.07;;;6.57;;
77864;SDS011;67061;48.524;9.040;2023-06-22T00:54:04;8.13;;;6.53;;
77864;SDS011;67061;48.524;9.040;2023-06-22T00:56:31;9.48;;;6.32;;
77864;SDS011;67061;48.524;9.040;2023-06-22T00:59:01;10.50;;;5.95;;
77864;SDS011;67061;48.524;9.040;2023-06-22T01:01:28;9.68;;;6.72;;
77864;SDS011;67061;48.524;9.040;2023-06-22T01:03:56;8.02;;;6.07;;
77864;SDS011;67061;48.524;9.040;2023-06-22T01:06:25;8.88;;;6.20;;
77864;SDS011;67061;48.524;9.040;2023-06-22T01:08:59;10.32;;;6.90;;
77864;SDS011;67061;48.524;9.040;2023-06-22T01:11:31;11.88;;;6.75;;
77864;SDS011;67061;48.524;9.040;2023-06-22T01:14:04;9.60;;;6.65;;
77864;SDS011;67061;48.524;9.040;2023-06-22T01:16:37;10.40;;;6.57;;
77864;SDS011;67061;48.524;9.040;2023-06-22T01:19:09;9.52;;;6.07;;
77864;SDS011;67061;48.524;9.040;2023-06-22T01:21:51;12.20;;;7.07;;
77864;SDS011;67061;48.524;9.040;2023-06-22T01:24:22;12.40;;;7.57;;
77864;SDS011;67061;48.524;9.040;2023-06-22T01:26:54;10.60;;;6.45;;
77864;SDS011;67061;48.524;9.040;2023-06-22T01:29:32;10.70;;;6.72;;
77864;SDS011;67061;48.524;9.040;2023-06-22T01:32:01;11.23;;;6.88;;
77864;SDS011;67061;48.524;9.040;2023-06-22T01:34:31;9.13;;;6.45;;
77864;SDS011;67061;48.524;9.040;2023-06-22T01:36:59;9.63;;;7.10;;
77864;SDS011;67061;48.524;9.040;2023-06-22T01:39:27;10.90;;;6.88;;
77864;SDS011;67061;48.524;9.040;2023-06-22T01:41:54;8.52;;;6.47;;
77864;SDS011;67061;48.524;9.040;2023-06-22T01:44:21;13.10;;;7.55;;
77864;SDS011;67061;48.524;9.040;2023-06-22T01:46:52;9.18;;;6.30;;
77864;SDS011;67061;48.524;9.040;2023-06-22T01:49:19;8.80;;;6.80;;
77864;SDS011;67061;48.524;9.040;2023-06-22T01:51:46;10.13;;;6.75;;
77864;SDS011;67061;48.524;9.040;2023-06-22T01:54:13;9.35;;;6.72;;
77864;SDS011;67061;48.524;9.040;2023-06-22T01:56:40;9.68;;;6.18;;
77864;SDS011;67061;48.524;9.040;2023-06-22T01:59:12;10.02;;;6.97;;
77864;SDS011;67061;48.524;9.040;2023-06-22T02:01:42;11.63;;;7.65;;
77864;SDS011;67061;48.524;9.040;2023-06-22T02:04:13;10.73;;;6.72;;
77864;SDS011;67061;48.524;9.040;2023-06-22T02:06:46;8.20;;;6.65;;
77864;SDS011;67061;48.524;9.040;2023-06-22T02:09:16;9.88;;;7.22;;
77864;SDS011;67061;48.524;9.040;2023-06-22T02:11:47;10.40;;;6.78;;
77864;SDS011;67061;48.524;9.040;2023-06-22T02:14:18;9.88;;;6.93;;
77864;SDS011;67061;48.524;9.040;2023-06-22T02:16:46;10.65;;;7.28;;
77864;SDS011;67061;48.524;9.040;2023-06-22T02:19:15;11.50;;;6.88;;
77864;SDS011;67061;48.524;9.040;2023-06-22T02:21:43;12.02;;;6.28;;
77864;SDS011;67061;48.524;9.040;2023-06-22T02:24:10;9.60;;;6.57;;
77864;SDS011;67061;48.524;9.040;2023-06-22T02:26:37;11.32;;;7.32;;
77864;SDS011;67061;48.524;9.040;2023-06-22T02:29:05;10.05;;;6.82;;
77864;SDS011;67061;48.524;9.040;2023-06-22T02:31:31;9.27;;;6.97;;
77864;SDS011;67061;48.524;9.040;2023-06-22T02:33:58;9.20;;;6.93;;
77864;SDS011;67061;48.524;9.040;2023-06-22T02:36:27;10.48;;;7.32;;
77864;SDS011;67061;48.524;9.040;2023-06-22T02:38:55;10.00;;;6.50;;
77864;SDS011;67061;48.524;9.040;2023-06-22T02:41:24;10.15;;;6.75;;
77864;SDS011;67061;48.524;9.040;2023-06-22T02:43:51;10.95;;;6.82;;
77864;SDS011;67061;48.524;9.040;2023-06-22T02:46:18;10.20;;;6.90;;
77864;SDS011;67061;48.524;9.040;2023-06-22T02:48:44;13.02;;;7.03;;
77864;SDS011;67061;48.524;9.040;2023-06-22T02:51:11;11.85;;;7.22;;
77864;SDS011;67061;48.524;9.040;2023-06-22T02:53:41;10.02;;;6.25;;
77864;SDS011;67061;48.524;9.040;2023-06-22T02:56:09;10.43;;;7.18;;
77864;SDS011;67061;48.524;9.040;2023-06-22T02:58:38;10.15;;;6.53;;
77864;SDS011;67061;48.524;9.040;2023-06-22T03:01:05;10.60;;;7.80;;
77864;SDS011;67061;48.524;9.040;2023-06-22T03:03:31;9.13;;;6.63;;
77864;SDS011;67061;48.524;9.040;2023-06-22T03:05:58;10.15;;;6.88;;
77864;SDS011;67061;48.524;9.040;2023-06-22T03:08:27;10.48;;;7.60;;
77864;SDS011;67061;48.524;9.040;2023-06-22T03:10:55;10.60;;;7.20;;
77864;SDS011;67061;48.524;9.040;2023-06-22T03:13:22;10.52;;;6.93;;
77864;SDS011;67061;48.524;9.040;2023-06-22T03:15:49;9.93;;;7.50;;
77864;SDS011;67061;48.524;9.040;2023-06-22T03:18:16;12.05;;;8.13;;
77864;SDS011;67061;48.524;9.040;2023-06-22T03:20:43;11.65;;;7.85;;
77864;SDS011;67061;48.524;9.040;2023-06-22T03:23:10;10.40;;;7.68;;
77864;SDS011;67061;48.524;9.040;2023-06-22T03:25:37;12.52;;;7.40;;
77864;SDS011;67061;48.524;9.040;2023-06-22T03:28:05;9.98;;;7.13;;
77864;SDS011;67061;48.524;9.040;2023-06-22T03:30:32;11.05;;;6.53;;
77864;SDS011;67061;48.524;9.040;2023-06-22T03:32:59;13.30;;;7.30;;
77864;SDS011;67061;48.524;9.040;2023-06-22T03:35:25;14.43;;;7.35;;
77864;SDS011;67061;48.524;9.040;2023-06-22T03:37:53;16.00;;;7.45;;
77864;SDS011;67061;48.524;9.040;2023-06-22T03:40:20;12.57;;;7.63;;
77864;SDS011;67061;48.524;9.040;2023-06-22T03:42:46;15.50;;;7.15;;
77864;SDS011;67061;48.524;9.040;2023-06-22T03:45:15;13.80;;;7.60;;
77864;SDS011;67061;48.524;9.040;2023-06-22T03:47:42;15.63;;;7.43;;
77864;SDS011;67061;48.524;9.040;2023-06-22T03:50:09;16.15;;;7.20;;
77864;SDS011;67061;48.524;9.040;2023-06-22T03:52:36;16.52;;;7.72;;
77864;SDS011;67061;48.524;9.040;2023-06-22T03:55:03;12.60;;;7.32;;
77864;SDS011;67061;48.524;9.040;2023-06-22T03:57:31;14.40;;;7.35;;
77864;SDS011;67061;48.524;9.040;2023-06-22T03:59:57;13.55;;;7.90;;
77864;SDS011;67061;48.524;9.040;2023-06-22T04:02:26;16.45;;;7.50;;
77864;SDS011;67061;48.524;9.040;2023-06-22T04:04:53;12.30;;;7.65;;
77864;SDS011;67061;48.524;9.040;2023-06-22T04:07:19;12.68;;;7.40;;
77864;SDS011;67061;48.524;9.040;2023-06-22T04:09:46;15.43;;;7.60;;
77864;SDS011;67061;48.524;9.040;2023-06-22T04:12:13;12.93;;;8.27;;
77864;SDS011;67061;48.524;9.040;2023-06-22T04:14:40;11.45;;;7.03;;
77864;SDS011;67061;48.524;9.040;2023-06-22T04:17:07;13.57;;;9.30;;
77864;SDS011;67061;48.524;9.040;2023-06-22T04:19:35;11.40;;;6.90;;
77864;SDS011;67061;48.524;9.040;2023-06-22T04:22:02;15.80;;;7.63;;
77864;SDS011;67061;48.524;9.040;2023-06-22T04:24:31;14.05;;;7.85;;
77864;SDS011;67061;48.524;9.040;2023-06-22T04:26:58;14.48;;;7.10;;
77864;SDS011;67061;48.524;9.040;2023-06-22T04:29:25;12.50;;;7.47;;
77864;SDS011;67061;48.524;9.040;2023-06-22T04:31:54;11.52;;;7.50;;
77864;SDS011;67061;48.524;9.040;2023-06-22T04:34:22;16.33;;;7.47;;
77864;SDS011;67061;48.524;9.040;2023-06-22T04:39:19;14.77;;;7.82;;
77864;SDS011;67061;48.524;9.040;2023-06-22T04:41:47;14.27;;;7.72;;
77864;SDS011;67061;48.524;9.040;2023-06-22T04:44:16;15.75;;;8.40;;
77864;SDS011;67061;48.524;9.040;2023-06-22T04:46:49;14.13;;;8.20;;
77864;SDS011;67061;48.524;9.040;2023-06-22T04:49:19;17.38;;;7.75;;
77864;SDS011;67061;48.524;9.040;2023-06-22T04:51:47;12.10;;;7.88;;
77864;SDS011;67061;48.524;9.040;2023-06-22T04:54:18;12.38;;;7.60;;
77864;SDS011;67061;48.524;9.040;2023-06-22T04:56:45;12.43;;;8.15;;
77864;SDS011;67061;48.524;9.040;2023-06-22T04:59:11;14.50;;;8.23;;
77864;SDS011;67061;48.524;9.040;2023-06-22T05:01:39;13.75;;;8.35;;
77864;SDS011;67061;48.524;9.040;2023-06-22T05:04:06;13.80;;;8.45;;
77864;SDS011;67061;48.524;9.040;2023-06-22T05:06:34;14.60;;;7.90;;
77864;SDS011;67061;48.524;9.040;2023-06-22T05:09:00;14.98;;;8.55;;
77864;SDS011;67061;48.524;9.040;2023-06-22T05:11:29;12.70;;;7.75;;
77864;SDS011;67061;48.524;9.040;2023-06-22T05:13:56;11.38;;;7.88;;
77864;SDS011;67061;48.524;9.040;2023-06-22T05:16:24;12.63;;;8.02;;
77864;SDS011;67061;48.524;9.040;2023-06-22T05:18:51;13.07;;;9.00;;
77864;SDS011;67061;48.524;9.040;2023-06-22T05:21:21;11.93;;;8.82;;
77864;SDS011;67061;48.524;9.040;2023-06-22T05:23:49;12.65;;;9.13;;
77864;SDS011;67061;48.524;9.040;2023-06-22T05:26:17;12.27;;;8.75;;
77864;SDS011;67061;48.524;9.040;2023-06-22T05:28:46;11.63;;;8.70;;
77864;SDS011;67061;48.524;9.040;2023-06-22T05:31:13;16.52;;;8.82;;
77864;SDS011;67061;48.524;9.040;2023-06-22T05:33:40;13.18;;;8.73;;
77864;SDS011;67061;48.524;9.040;2023-06-22T05:36:07;14.10;;;8.50;;
77864;SDS011;67061;48.524;9.040;2023-06-22T05:38:35;14.00;;;8.98;;
77864;SDS011;67061;48.524;9.040;2023-06-22T05:41:02;10.40;;;7.68;;
77864;SDS011;67061;48.524;9.040;2023-06-22T05:43:29;10.48;;;8.45;;
77864;SDS011;67061;48.524;9.040;2023-06-22T05:45:57;12.88;;;8.10;;
77864;SDS011;67061;48.524;9.040;2023-06-22T05:48:24;12.05;;;8.07;;
77864;SDS011;67061;48.524;9.040;2023-06-22T05:50:51;10.68;;;8.18;;
77864;SDS011;67061;48.524;9.040;2023-06-22T05:53:18;11.35;;;7.38;;
77864;SDS011;67061;48.524;9.040;2023-06-22T05:55:45;16.25;;;8.18;;
77864;SDS011;67061;48.524;9.040;2023-06-22T05:58:12;11.48;;;8.60;;
77864;SDS011;67061;48.524;9.040;2023-06-22T06:00:39;12.82;;;7.68;;
77864;SDS011;67061;48.524;9.040;2023-06-22T06:03:08;13.38;;;7.95;;
77864;SDS011;67061;48.524;9.040;2023-06-22T06:05:36;10.63;;;7.60;;
77864;SDS011;67061;48.524;9.040;2023-06-22T06:08:04;12.18;;;7.93;;
77864;SDS011;67061;48.524;9.040;2023-06-22T06:10:34;12.18;;;8.32;;
77864;SDS011;67061;48.524;9.040;2023-06-22T06:13:04;14.55;;;7.78;;
77864;SDS011;67061;48.524;9.040;2023-06-22T06:15:31;10.98;;;8.40;;
77864;SDS011;67061;48.524;9.040;2023-06-22T06:17:58;12.43;;;7.63;;
77864;SDS011;67061;48.524;9.040;2023-06-22T06:20:27;12.52;;;6.68;;
77864;SDS011;67061;48.524;9.040;2023-06-22T06:25:21;9.98;;;6.43;;
77864;SDS011;67061;48.524;9.040;2023-06-22T06:27:48;12.60;;;7.68;;
77864;SDS011;67061;48.524;9.040;2023-06-22T06:35:13;11.80;;;6.55;;
77864;SDS011;67061;48.524;9.040;2023-06-22T06:40:10;10.15;;;6.47;;
77864;SDS011;67061;48.524;9.040;2023-06-22T06:45:05;9.45;;;5.93;;
77864;SDS011;67061;48.524;9.040;2023-06-22T06:47:33;10.90;;;5.78;;
77864;SDS011;67061;48.524;9.040;2023-06-22T06:50:00;9.95;;;5.47;;
77864;SDS011;67061;48.524;9.040;2023-06-22T06:52:27;8.80;;;5.97;;
77864;SDS011;67061;48.524;9.040;2023-06-22T06:54:55;10.38;;;5.82;;
77864;SDS011;67061;48.524;9.040;2023-06-22T06:57:22;10.63;;;6.55;;
77864;SDS011;67061;48.524;9.040;2023-06-22T06:59:49;9.18;;;6.00;;
77864;SDS011;67061;48.524;9.040;2023-06-22T07:02:15;11.98;;;6.60;;
77864;SDS011;67061;48.524;9.040;2023-06-22T07:04:42;8.15;;;5.78;;
77864;SDS011;67061;48.524;9.040;2023-06-22T07:07:09;10.30;;;5.28;;
77864;SDS011;67061;48.524;9.040;2023-06-22T07:09:36;10.68;;;6.35;;
77864;SDS011;67061;48.524;9.040;2023-06-22T07:12:05;11.43;;;6.10;;
77864;SDS011;67061;48.524;9.040;2023-06-22T07:14:32;9.73;;;5.38;;
77864;SDS011;67061;48.524;9.040;2023-06-22T07:16:59;10.48;;;5.90;;
77864;SDS011;67061;48.524;9.040;2023-06-22T07:19:26;11.98;;;5.22;;
77864;SDS011;67061;48.524;9.040;2023-06-22T07:21:54;8.25;;;5.22;;
77864;SDS011;67061;48.524;9.040;2023-06-22T07:24:21;10.00;;;5.35;;
77864;SDS011;67061;48.524;9.040;2023-06-22T07:26:48;9.85;;;5.30;;
77864;SDS011;67061;48.524;9.040;2023-06-22T07:29:17;7.75;;;4.35;;
77864;SDS011;67061;48.524;9.040;2023-06-22T07:31:45;8.32;;;5.07;;
77864;SDS011;67061;48.524;9.040;2023-06-22T07:34:11;8.02;;;4.57;;
77864;SDS011;67061;48.524;9.040;2023-06-22T07:36:38;8.15;;;5.20;;
77864;SDS011;67061;48.524;9.040;2023-06-22T07:39:05;9.95;;;4.78;;
77864;SDS011;67061;48.524;9.040;2023-06-22T07:41:32;8.05;;;4.60;;
77864;SDS011;67061;48.524;9.040;2023-06-22T07:43:59;9.55;;;5.47;;
77864;SDS011;67061;48.524;9.040;2023-06-22T07:46:27;9.68;;;4.65;;
77864;SDS011;67061;48.524;9.040;2023-06-22T07:48:55;9.40;;;4.75;;
77864;SDS011;67061;48.524;9.040;2023-06-22T07:51:22;12.68;;;5.03;;
77864;SDS011;67061;48.524;9.040;2023-06-22T07:53:49;10.75;;;5.05;;
77864;SDS011;67061;48.524;9.040;2023-06-22T07:56:16;11.70;;;4.90;;
77864;SDS011;67061;48.524;9.040;2023-06-22T07:58:44;10.13;;;5.18;;
77864;SDS011;67061;48.524;9.040;2023-06-22T08:01:11;7.72;;;5.47;;
77864;SDS011;67061;48.524;9.040;2023-06-22T08:03:40;9.85;;;4.85;;
77864;SDS011;67061;48.524;9.040;2023-06-22T08:06:07;9.45;;;4.85;;
77864;SDS011;67061;48.524;9.040;2023-06-22T08:08:35;14.32;;;5.60;;
77864;SDS011;67061;48.524;9.040;2023-06-22T08:11:02;8.27;;;4.80;;
77864;SDS011;67061;48.524;9.040;2023-06-22T08:13:29;9.45;;;5.05;;
77864;SDS011;67061;48.524;9.040;2023-06-22T08:15:56;10.70;;;5.10;;
77864;SDS011;67061;48.524;9.040;2023-06-22T08:18:23;8.95;;;4.72;;
77864;SDS011;67061;48.524;9.040;2023-06-22T08:20:51;8.68;;;4.90;;
77864;SDS011;67061;48.524;9.040;2023-06-22T08:23:18;9.43;;;5.50;;
77864;SDS011;67061;48.524;9.040;2023-06-22T08:25:47;10.52;;;5.65;;
77864;SDS011;67061;48.524;9.040;2023-06-22T08:28:15;9.82;;;5.05;;
77864;SDS011;67061;48.524;9.040;2023-06-22T08:30:42;9.90;;;5.82;;
77864;SDS011;67061;48.524;9.040;2023-06-22T08:33:09;9.23;;;5.63;;
77864;SDS011;67061;48.524;9.040;2023-06-22T08:35:36;7.57;;;5.05;;
77864;SDS011;67061;48.524;9.040;2023-06-22T08:38:04;7.40;;;5.28;;
77864;SDS011;67061;48.524;9.040;2023-06-22T08:42:58;13.95;;;5.28;;
77864;SDS011;67061;48.524;9.040;2023-06-22T08:45:25;10.90;;;5.65;;
77864;SDS011;67061;48.524;9.040;2023-06-22T08:47:52;17.35;;;6.68;;
77864;SDS011;67061;48.524;9.040;2023-06-22T08:50:19;10.15;;;5.03;;
77864;SDS011;67061;48.524;9.040;2023-06-22T08:52:45;7.47;;;5.00;;
77864;SDS011;67061;48.524;9.040;2023-06-22T08:55:14;11.13;;;5.60;;
77864;SDS011;67061;48.524;9.040;2023-06-22T08:57:43;12.07;;;5.82;;
77864;SDS011;67061;48.524;9.040;2023-06-22T09:00:10;11.25;;;5.32;;
77864;SDS011;67061;48.524;9.040;2023-06-22T09:02:42;11.63;;;5.65;;
77864;SDS011;67061;48.524;9.040;2023-06-22T09:05:09;10.40;;;5.90;;
77864;SDS011;67061;48.524;9.040;2023-06-22T09:07:36;10.00;;;5.03;;
77864;SDS011;67061;48.524;9.040;2023-06-22T09:10:03;9.43;;;5.10;;
77864;SDS011;67061;48.524;9.040;2023-06-22T09:12:32;14.55;;;5.65;;
77864;SDS011;67061;48.524;9.040;2023-06-22T09:14:59;10.43;;;7.03;;
77864;SDS011;67061;48.524;9.040;2023-06-22T09:17:27;13.40;;;5.72;;
77864;SDS011;67061;48.524;9.040;2023-06-22T09:19:54;15.43;;;5.30;;
77864;SDS011;67061;48.524;9.040;2023-06-22T09:22:21;10.82;;;5.70;;
77864;SDS011;67061;48.524;9.040;2023-06-22T09:24:54;11.27;;;5.45;;
77864;SDS011;67061;48.524;9.040;2023-06-22T09:27:21;11.48;;;5.32;;
77864;SDS011;67061;48.524;9.040;2023-06-22T09:29:49;9.82;;;5.55;;
77864;SDS011;67061;48.524;9.040;2023-06-22T09:32:16;12.93;;;5.78;;
77864;SDS011;67061;48.524;9.040;2023-06-22T09:34:43;7.93;;;5.32;;
77864;SDS011;67061;48.524;9.040;2023-06-22T09:37:10;11.52;;;5.93;;
77864;SDS011;67061;48.524;9.040;2023-06-22T09:39:38;10.65;;;5.25;;
77864;SDS011;67061;48.524;9.040;2023-06-22T09:42:05;11.25;;;6.07;;
77864;SDS011;67061;48.524;9.040;2023-06-22T09:44:32;9.32;;;5.60;;
77864;SDS011;67061;48.524;9.040;2023-06-22T09:47:01;9.43;;;5.63;;
77864;SDS011;67061;48.524;9.040;2023-06-22T09:49:28;10.95;;;5.93;;
77864;SDS011;67061;48.524;9.040;2023-06-22T09:51:54;10.20;;;5.68;;
77864;SDS011;67061;48.524;9.040;2023-06-22T09:54:21;9.10;;;5.50;;
77864;SDS011;67061;48.524;9.040;2023-06-22T09:56:49;11.02;;;5.32;;
77864;SDS011;67061;48.524;9.040;2023-06-22T09:59:15;10.60;;;5.75;;
77864;SDS011;67061;48.524;9.040;2023-06-22T10:01:42;11.57;;;5.15;;
77864;SDS011;67061;48.524;9.040;2023-06-22T10:04:11;9.35;;;4.95;;
77864;SDS011;67061;48.524;9.040;2023-06-22T10:06:38;9.35;;;5.05;;
77864;SDS011;67061;48.524;9.040;2023-06-22T10:09:05;11.10;;;5.28;;
77864;SDS011;67061;48.524;9.040;2023-06-22T10:11:32;10.10;;;4.97;;
77864;SDS011;67061;48.524;9.040;2023-06-22T10:14:00;10.95;;;5.93;;
77864;SDS011;67061;48.524;9.040;2023-06-22T10:16:30;12.35;;;5.75;;
77864;SDS011;67061;48.524;9.040;2023-06-22T10:18:57;10.60;;;5.28;;
77864;SDS011;67061;48.524;9.040;2023-06-22T10:21:25;10.80;;;5.35;;
77864;SDS011;67061;48.524;9.040;2023-06-22T10:23:53;10.27;;;5.78;;
77864;SDS011;67061;48.524;9.040;2023-06-22T10:26:21;10.60;;;5.45;;
77864;SDS011;67061;48.524;9.040;2023-06-22T10:28:48;9.45;;;5.65;;
77864;SDS011;67061;48.524;9.040;2023-06-22T10:31:15;8.88;;;5.43;;
77864;SDS011;67061;48.524;9.040;2023-06-22T10:33:42;7.45;;;5.25;;
77864;SDS011;67061;48.524;9.040;2023-06-22T10:36:09;11.68;;;5.57;;
77864;SDS011;67061;48.524;9.040;2023-06-22T10:38:38;9.80;;;5.40;;
77864;SDS011;67061;48.524;9.040;2023-06-22T10:41:05;8.32;;;5.35;;
77864;SDS011;67061;48.524;9.040;2023-06-22T10:43:32;12.07;;;6.07;;
77864;SDS011;67061;48.524;9.040;2023-06-22T10:45:58;10.55;;;5.53;;
77864;SDS011;67061;48.524;9.040;2023-06-22T10:48:25;11.68;;;5.82;;
77864;SDS011;67061;48.524;9.040;2023-06-22T10:50:52;12.43;;;6.10;;
77864;SDS011;67061;48.524;9.040;2023-06-22T10:53:19;10.20;;;5.97;;
77864;SDS011;67061;48.524;9.040;2023-06-22T10:55:48;10.70;;;5.70;;
77864;SDS011;67061;48.524;9.040;2023-06-22T10:58:16;9.88;;;5.60;;
77864;SDS011;67061;48.524;9.040;2023-06-22T11:03:10;10.02;;;5.30;;
77864;SDS011;67061;48.524;9.040;2023-06-22T11:05:39;11.82;;;5.32;;
77864;SDS011;67061;48.524;9.040;2023-06-22T11:08:06;10.32;;;5.78;;
77864;SDS011;67061;48.524;9.040;2023-06-22T11:10:33;10.25;;;5.13;;
77864;SDS011;67061;48.524;9.040;2023-06-22T11:13:02;8.88;;;5.47;;
77864;SDS011;67061;48.524;9.040;2023-06-22T11:15:29;12.02;;;5.90;;
77864;SDS011;67061;48.524;9.040;2023-06-22T11:17:56;11.30;;;5.32;;
77864;SDS011;67061;48.524;9.040;2023-06-22T11:20:23;10.00;;;5.50;;
77864;SDS011;67061;48.524;9.040;2023-06-22T11:22:50;11.18;;;5.72;;
77864;SDS011;67061;48.524;9.040;2023-06-22T11:25:16;12.52;;;5.80;;
77864;SDS011;67061;48.524;9.040;2023-06-22T11:27:44;9.45;;;5.50;;
77864;SDS011;67061;48.524;9.040;2023-06-22T11:30:13;9.77;;;5.47;;
77864;SDS011;67061;48.524;9.040;2023-06-22T11:32:40;10.95;;;5.65;;
77864;SDS011;67061;48.524;9.040;2023-06-22T11:35:07;10.23;;;5.65;;
77864;SDS011;67061;48.524;9.040;2023-06-22T11:37:34;11.10;;;6.07;;
77864;SDS011;67061;48.524;9.040;2023-06-22T11:40:01;8.85;;;5.40;;
77864;SDS011;67061;48.524;9.040;2023-06-22T11:42:30;10.70;;;5.68;;
77864;SDS011;67061;48.524;9.040;2023-06-22T11:44:57;12.48;;;5.78;;
77864;SDS011;67061;48.524;9.040;2023-06-22T11:47:25;9.32;;;6.15;;
77864;SDS011;67061;48.524;9.040;2023-06-22T11:49:52;9.90;;;5.55;;
77864;SDS011;67061;48.524;9.040;2023-06-22T11:52:19;11.65;;;5.68;;
77864;SDS011;67061;48.524;9.040;2023-06-22T11:54:47;10.43;;;6.82;;
77864;SDS011;67061;48.524;9.040;2023-06-22T11:57:14;12.88;;;5.43;;
77864;SDS011;67061;48.524;9.040;2023-06-22T11:59:41;11.07;;;5.38;;
77864;SDS011;67061;48.524;9.040;2023-06-22T12:02:08;12.00;;;5.47;;
77864;SDS011;67061;48.524;9.040;2023-06-22T12:04:36;11.50;;;5.97;;
77864;SDS011;67061;48.524;9.040;2023-06-22T12:07:03;12.80;;;5.80;;
77864;SDS011;67061;48.524;9.040;2023-06-22T12:09:30;11.68;;;5.82;;
77864;SDS011;67061;48.524;9.040;2023-06-22T12:11:57;14.13;;;5.75;;
77864;SDS011;67061;48.524;9.040;2023-06-22T12:14:23;10.32;;;5.47;;
77864;SDS011;67061;48.524;9.040;2023-06-22T12:16:50;9.98;;;5.50;;
77864;SDS011;67061;48.524;9.040;2023-06-22T12:19:17;12.88;;;6.18;;
77864;SDS011;67061;48.524;9.040;2023-06-22T12:21:45;15.95;;;5.75;;
77864;SDS011;67061;48.524;9.040;2023-06-22T12:24:12;11.43;;;5.60;;
77864;SDS011;67061;48.524;9.040;2023-06-22T12:26:39;12.40;;;6.00;;
77864;SDS011;67061;48.524;9.040;2023-06-22T12:29:06;10.13;;;6.13;;
77864;SDS011;67061;48.524;9.040;2023-06-22T12:31:33;12.07;;;6.32;;
77864;SDS011;67061;48.524;9.040;2023-06-22T12:34:00;10.70;;;5.20;;
77864;SDS011;67061;48.524;9.040;2023-06-22T12:36:27;9.93;;;5.60;;
77864;SDS011;67061;48.524;9.040;2023-06-22T12:38:55;10.20;;;5.90;;
77864;SDS011;67061;48.524;9.040;2023-06-22T12:41:22;11.43;;;5.72;;
77864;SDS011;67061;48.524;9.040;2023-06-22T12:43:49;14.20;;;5.93;;
77864;SDS011;67061;48.524;9.040;2023-06-22T12:46:16;11.48;;;5.43;;
77864;SDS011;67061;48.524;9.040;2023-06-22T12:48:43;11.20;;;5.78;;
77864;SDS011;67061;48.524;9.040;2023-06-22T12:51:09;12.18;;;6.93;;
77864;SDS011;67061;48.524;9.040;2023-06-22T12:53:36;12.05;;;6.30;;
77864;SDS011;67061;48.524;9.040;2023-06-22T12:56:05;12.32;;;5.53;;
77864;SDS011;67061;48.524;9.040;2023-06-22T12:58:31;10.25;;;5.45;;
77864;SDS011;67061;48.524;9.040;2023-06-22T13:00:58;11.00;;;5.55;;
77864;SDS011;67061;48.524;9.040;2023-06-22T13:03:25;10.98;;;5.50;;
77864;SDS011;67061;48.524;9.040;2023-06-22T13:05:53;11.95;;;5.78;;
77864;SDS011;67061;48.524;9.040;2023-06-22T13:08:20;12.18;;;5.93;;
77864;SDS011;67061;48.524;9.040;2023-06-22T13:10:47;9.27;;;5.60;;
77864;SDS011;67061;48.524;9.040;2023-06-22T13:13:15;11.23;;;5.63;;
77864;SDS011;67061;48.524;9.040;2023-06-22T13:15:42;11.93;;;5.80;;
77864;SDS011;67061;48.524;9.040;2023-06-22T13:18:09;10.98;;;5.60;;
77864;SDS011;67061;48.524;9.040;2023-06-22T13:20:36;14.35;;;6.38;;
77864;SDS011;67061;48.524;9.040;2023-06-22T13:23:03;9.82;;;5.57;;
77864;SDS011;67061;48.524;9.040;2023-06-22T13:25:30;10.85;;;5.78;;
77864;SDS011;67061;48.524;9.040;2023-06-22T13:27:56;10.13;;;5.07;;
77864;SDS011;67061;48.524;9.040;2023-06-22T13:30:25;10.10;;;5.18;;
77864;SDS011;67061;48.524;9.040;2023-06-22T13:32:51;13.18;;;5.68;;
77864;SDS011;67061;48.524;9.040;2023-06-22T13:35:18;10.43;;;5.07;;
77864;SDS011;67061;48.524;9.040;2023-06-22T13:37:45;7.80;;;4.78;;
77864;SDS011;67061;48.524;9.040;2023-06-22T13:40:12;9.35;;;5.63;;
77864;SDS011;67061;48.524;9.040;2023-06-22T13:42:39;7.20;;;4.75;;
77864;SDS011;67061;48.524;9.040;2023-06-22T13:45:07;10.88;;;5.72;;
77864;SDS011;67061;48.524;9.040;2023-06-22T13:47:35;10.63;;;5.88;;
77864;SDS011;67061;48.524;9.040;2023-06-22T13:50:02;15.00;;;5.30;;
77864;SDS011;67061;48.524;9.040;2023-06-22T13:52:30;10.57;;;5.78;;
77864;SDS011;67061;48.524;9.040;2023-06-22T13:54:56;12.07;;;6.85;;
77864;SDS011;67061;48.524;9.040;2023-06-22T13:57:23;13.98;;;6.22;;
77864;SDS011;67061;48.524;9.040;2023-06-22T13:59:50;15.02;;;6.20;;
77864;SDS011;67061;48.524;9.040;2023-06-22T14:02:17;11.35;;;5.80;;
77864;SDS011;67061;48.524;9.040;2023-06-22T14:04:45;11.57;;;5.90;;
77864;SDS011;67061;48.524;9.040;2023-06-22T14:07:12;10.57;;;5.70;;
77864;SDS011;67061;48.524;9.040;2023-06-22T14:09:39;12.43;;;5.57;;
77864;SDS011;67061;48.524;9.040;2023-06-22T14:12:06;12.57;;;6.28;;
77864;SDS011;67061;48.524;9.040;2023-06-22T14:14:34;12.23;;;6.43;;
77864;SDS011;67061;48.524;9.040;2023-06-22T14:17:01;12.20;;;6.45;;
77864;SDS011;67061;48.524;9.040;2023-06-22T14:19:28;10.75;;;5.72;;
77864;SDS011;67061;48.524;9.040;2023-06-22T14:21:56;11.20;;;5.80;;
77864;SDS011;67061;48.524;9.040;2023-06-22T14:24:23;10.38;;;5.55;;
77864;SDS011;67061;48.524;9.040;2023-06-22T14:26:50;12.65;;;5.57;;
77864;SDS011;67061;48.524;9.040;2023-06-22T14:29:17;11.32;;;5.70;;
77864;SDS011;67061;48.524;9.040;2023-06-22T14:31:44;11.05;;;5.53;;
77864;SDS011;67061;48.524;9.040;2023-06-22T14:34:12;11.00;;;5.88;;
77864;SDS011;67061;48.524;9.040;2023-06-22T14:36:39;10.30;;;5.78;;
77864;SDS011;67061;48.524;9.040;2023-06-22T14:39:07;10.98;;;5.97;;
77864;SDS011;67061;48.524;9.040;2023-06-22T14:41:35;10.25;;;5.45;;
77864;SDS011;67061;48.524;9.040;2023-06-22T14:44:01;10.80;;;7.13;;
77864;SDS011;67061;48.524;9.040;2023-06-22T14:46:28;11.02;;;5.95;;
77864;SDS011;67061;48.524;9.040;2023-06-22T14:51:23;9.95;;;4.25;;
77864;SDS011;67061;48.524;9.040;2023-06-22T14:53:50;11.38;;;3.53;;
77864;SDS011;67061;48.524;9.040;2023-06-22T14:56:18;11.82;;;3.70;;
77864;SDS011;67061;48.524;9.040;2023-06-22T14:58:45;10.23;;;3.13;;
77864;SDS011;67061;48.524;9.040;2023-06-22T15:01:12;9.90;;;3.50;;